Adventurer — WDG2953 — position and weather

sailwx.info

Track history (hours):
 
Tides and Currents Weather Stations Pressure Air Temp Water Temp Dewpoint Dewpoint Depression Visibility Wind Speed Wind Dir Waves Ship Positions

Adventurer

Owner: Hood, Duncan M, Annapolis, MD. More information available from US FCC via Universal Licensing System and Coast Guard Vessel Documentation Center.

Last reported at 2017-Oct-17 20:36 UTC. Time now 2017-Oct-18 11:20 UTC.
Position N 38°58' W 076°29'.

Length 15 m.

Type: Sailing vessel. MMSI: 367520960.

Date/timePositionNaut miles runAvg speedWind from/ knotsBaromVisibWave heightAir tempDewpointWater temp
2017-Oct-17 20:36N 38°58' W 076°29'0 0.0
2017-Oct-17 20:30N 38°58' W 076°29'0 0.0
2017-Oct-17 20:00N 38°58' W 076°29'0 0.0
2017-Oct-17 19:24N 38°58' W 076°29'0 0.0
2017-Oct-17 18:33N 38°58' W 076°29'0 0.0
2017-Oct-17 18:24N 38°58' W 076°29'0 0.0
2017-Oct-16 15:45N 38°58' W 076°29'0 0.0
2017-Oct-16 15:30N 38°58' W 076°29'0 0.0
2017-Oct-16 08:14N 38°58' W 076°29'0 0.0
2017-Oct-16 07:56N 38°58' W 076°29'2 3.5
2017-Oct-16 07:30N 38°57' W 076°27'3 5.0
2017-Oct-16 07:00N 38°55' W 076°27'3 5.1
2017-Oct-16 06:30N 38°52' W 076°26'122 5.1
2017-Oct-15 06:38N 36°50' W 076°18'0 0.0
2017-Oct-15 06:14N 36°50' W 076°18'0 0.0
2017-Oct-15 05:53N 36°50' W 076°18'0 0.0
2017-Oct-15 05:20N 36°50' W 076°18'0 0.0
2017-Oct-15 04:56N 36°50' W 076°18'0 0.0
2017-Oct-15 04:20N 36°50' W 076°18'0 0.0
2017-Oct-15 03:59N 36°50' W 076°18'0 0.0
2017-Oct-15 03:26N 36°50' W 076°18'0 0.0
2017-Oct-15 02:59N 36°50' W 076°18'0 0.0
2017-Oct-15 02:13N 36°50' W 076°18'0 0.0
2017-Oct-14 21:24N 36°50' W 076°18'0 0.0
2017-Oct-14 21:00N 36°50' W 076°18'0 0.0
2017-Oct-14 20:27N 36°50' W 076°18'0 0.0
2017-Oct-14 20:00N 36°50' W 076°18'0 0.0
2017-Oct-14 19:27N 36°50' W 076°18'0 0.0
2017-Oct-14 18:51N 36°50' W 076°18'0 0.0
2017-Oct-14 18:27N 36°50' W 076°18'0 0.0
2017-Oct-14 17:39N 36°50' W 076°18'0 0.0
2017-Oct-14 17:30N 36°50' W 076°18'0 0.0
2017-Oct-14 17:00N 36°50' W 076°18'0 0.0
2017-Oct-14 16:30N 36°50' W 076°18'0 0.0
2017-Oct-14 16:00N 36°50' W 076°18'0 0.0
2017-Oct-14 15:24N 36°50' W 076°18'0 0.0
2017-Oct-14 14:18N 36°50' W 076°18'0 0.0
2017-Oct-14 13:36N 36°50' W 076°18'0 0.0
2017-Oct-14 13:30N 36°50' W 076°18'0 0.0
2017-Oct-14 13:00N 36°50' W 076°18'0 0.0
2017-Oct-14 10:02N 36°50' W 076°18'0 0.0
2017-Oct-14 05:11N 36°50' W 076°18'0 0.0
2017-Oct-14 04:56N 36°50' W 076°18'0 0.0
2017-Oct-14 04:17N 36°50' W 076°18'0 0.0
2017-Oct-14 03:50N 36°50' W 076°18'0 0.0
2017-Oct-14 03:30N 36°50' W 076°18'0 0.0
2017-Oct-14 02:58N 36°50' W 076°18'0 0.0
2017-Oct-14 02:24N 36°50' W 076°18'0 0.0
2017-Oct-14 02:00N 36°50' W 076°18'0 0.0
2017-Oct-13 20:21N 36°50' W 076°18'0 0.0
2017-Oct-13 20:00N 36°50' W 076°18'0 0.0
2017-Oct-13 19:24N 36°50' W 076°18'0 0.0
2017-Oct-13 18:54N 36°50' W 076°18'0 0.0
2017-Oct-13 18:24N 36°50' W 076°18'0 0.0
2017-Oct-13 17:59N 36°50' W 076°18'0 0.0
2017-Oct-13 17:20N 36°50' W 076°18'0 0.0
2017-Oct-13 16:56N 36°50' W 076°18'0 0.0
2017-Oct-13 16:29N 36°50' W 076°18'0 0.0
2017-Oct-13 15:58N 36°50' W 076°18'0 0.0
2017-Oct-13 15:30N 36°50' W 076°18'0 0.0
2017-Oct-13 14:31N 36°50' W 076°18'0 0.0
2017-Oct-13 14:28N 36°50' W 076°18'0 0.1
2017-Oct-13 13:17N 36°50' W 076°18'0 0.0
2017-Oct-13 12:59N 36°50' W 076°18'0 0.0
2017-Oct-13 11:53N 36°50' W 076°18'0 0.2
2017-Oct-13 11:22N 36°51' W 076°18'2 5.8
2017-Oct-13 11:00N 36°52' W 076°20'116 7.2
2017-Oct-12 18:53N 38°48' W 076°26'3 8.7
2017-Oct-12 18:30N 38°51' W 076°25'4 8.3
2017-Oct-12 17:59N 38°55' W 076°25'3 5.5
2017-Oct-12 17:30N 38°58' W 076°25'2 3.1
2017-Oct-12 17:00N 38°59' W 076°23'3 6.6
2017-Oct-12 16:30N 39°02' W 076°23'9 5.0
2017-Oct-12 14:47N 39°10' W 076°27'2 5.5
2017-Oct-12 14:30N 39°11' W 076°28'3 5.9
2017-Oct-12 14:00N 39°13' W 076°31'3 6.0
2017-Oct-12 13:30N 39°15' W 076°34'2 3.0
2017-Oct-12 12:56N 39°17' W 076°35'0 0.0
2017-Oct-11 22:50N 39°17' W 076°35'0 0.0
2017-Oct-11 22:29N 39°17' W 076°35'0 0.0
2017-Oct-11 21:59N 39°17' W 076°35'1 2.6
2017-Oct-11 21:29N 39°17' W 076°36'1 2.6
2017-Oct-11 21:00N 39°16' W 076°35'0 0.4
2017-Oct-11 20:30N 39°16' W 076°35'0 0.4
2017-Oct-11 19:59N 39°17' W 076°35'0 0.0
2017-Oct-11 19:17N 39°17' W 076°35'0 0.0
2017-Oct-11 18:51N 39°17' W 076°35'19 0.8
2017-Oct-10 19:49N 38°58' W 076°29'1 3.9
2017-Oct-10 19:30N 38°59' W 076°28'1 0.6
2017-Oct-10 18:09N 38°60' W 076°29'0 2.1
2017-Oct-10 18:00N 38°59' W 076°29'1 2.8
2017-Oct-10 17:30N 38°58' W 076°29'0 0.1
2017-Oct-10 17:00N 38°58' W 076°29'0 0.4
2017-Oct-10 16:23N 38°58' W 076°29'0 0.0
2017-Oct-10 15:56N 38°58' W 076°29'0 0.0
2017-Oct-10 15:26N 38°58' W 076°29'0 0.0
2017-Oct-10 14:56N 38°58' W 076°29'0 0.0
2017-Oct-10 13:41N 38°58' W 076°29'0 0.0
2017-Oct-10 13:23N 38°58' W 076°29'0 0.0
2017-Oct-10 12:59N 38°58' W 076°29'0 0.0
2017-Oct-10 12:29N 38°58' W 076°29'0 0.0
2017-Oct-10 11:53N 38°58' W 076°29'0 0.0
2017-Oct-10 11:29N 38°58' W 076°29'0 0.0
2017-Oct-10 10:59N 38°58' W 076°29'0 0.0
2017-Oct-10 10:29N 38°58' W 076°29'0 0.0
2017-Oct-10 09:59N 38°58' W 076°29'0 0.0
2017-Oct-10 09:23N 38°58' W 076°29'0 0.0
2017-Oct-10 08:59N 38°58' W 076°29'0 0.0
2017-Oct-10 08:17N 38°58' W 076°29'0 0.0
2017-Oct-10 07:53N 38°58' W 076°29'0 0.0
2017-Oct-10 07:29N 38°58' W 076°29'0 0.0
2017-Oct-10 06:59N 38°58' W 076°29'0 0.0
2017-Oct-10 06:29N 38°58' W 076°29'0 0.0
2017-Oct-10 05:56N 38°58' W 076°29'0 0.0
2017-Oct-10 05:29N 38°58' W 076°29'0 0.0
2017-Oct-10 04:53N 38°58' W 076°29'0 0.0
2017-Oct-10 04:29N 38°58' W 076°29'0 0.0
2017-Oct-10 03:59N 38°58' W 076°29'0 0.0
2017-Oct-10 03:28N 38°58' W 076°29'0 0.0
2017-Oct-10 02:55N 38°58' W 076°29'0 0.0
2017-Oct-10 02:28N 38°58' W 076°29'0 0.0
2017-Oct-10 01:07N 38°58' W 076°29'0 0.0
2017-Oct-10 00:52N 38°58' W 076°29'0 0.0
2017-Oct-10 00:28N 38°58' W 076°29'0 0.0
2017-Oct-09 23:52N 38°58' W 076°29'0 0.0
2017-Oct-09 23:28N 38°58' W 076°29'0 0.0
2017-Oct-09 22:58N 38°58' W 076°29'0 0.0
2017-Oct-09 22:16N 38°58' W 076°29'0 0.0
2017-Oct-09 21:58N 38°58' W 076°29'0 0.0
2017-Oct-09 21:16N 38°58' W 076°29'0 0.0
2017-Oct-09 20:58N 38°58' W 076°29'0 0.0
2017-Oct-09 20:04N 38°58' W 076°29'0 0.0
2017-Oct-09 19:52N 38°58' W 076°29'0 0.0
2017-Oct-09 19:22N 38°58' W 076°29'0 0.0
2017-Oct-09 18:58N 38°58' W 076°29'0 0.0
2017-Oct-09 18:16N 38°58' W 076°29'0 0.0
2017-Oct-09 17:58N 38°58' W 076°29'0 0.0
2017-Oct-09 17:22N 38°58' W 076°29'0 0.0
2017-Oct-09 16:34N 38°58' W 076°29'0 0.0
2017-Oct-09 16:04N 38°58' W 076°29'0 0.0
2017-Oct-09 15:58N 38°58' W 076°29'0 0.0
2017-Oct-09 15:25N 38°58' W 076°29'0 0.0
2017-Oct-09 14:58N 38°58' W 076°29'0 0.0
2017-Oct-09 14:28N 38°58' W 076°29'0 0.0
2017-Oct-09 13:58N 38°58' W 076°29'0 0.0
2017-Oct-09 13:28N 38°58' W 076°29'0 0.0
2017-Oct-09 12:58N 38°58' W 076°29'0 0.0
2017-Oct-09 12:28N 38°58' W 076°29'0 0.0
2017-Oct-09 11:58N 38°58' W 076°29'0 0.0
2017-Oct-09 11:16N 38°58' W 076°29'0 0.0
2017-Oct-09 10:58N 38°58' W 076°29'0 0.0
2017-Oct-09 10:28N 38°58' W 076°29'0 0.0
2017-Oct-09 09:55N 38°58' W 076°29'0 0.0
2017-Oct-09 09:22N 38°58' W 076°29'0 0.0
2017-Oct-09 08:58N 38°58' W 076°29'0 0.0
2017-Oct-09 08:28N 38°58' W 076°29'0 0.0
2017-Oct-09 07:58N 38°58' W 076°29'0 0.0
2017-Oct-09 07:16N 38°58' W 076°29'0 0.0
2017-Oct-09 06:55N 38°58' W 076°29'0 0.0
2017-Oct-09 06:28N 38°58' W 076°29'0 0.0
2017-Oct-09 05:52N 38°58' W 076°29'0 0.0
2017-Oct-09 05:22N 38°58' W 076°29'0 0.0
2017-Oct-09 04:46N 38°58' W 076°29'0 0.0
2017-Oct-09 04:29N 38°58' W 076°29'0 0.0
2017-Oct-09 03:59N 38°58' W 076°29'0 0.0
2017-Oct-09 03:29N 38°58' W 076°29'0 0.0
2017-Oct-09 02:56N 38°58' W 076°29'0 0.0
2017-Oct-09 02:29N 38°58' W 076°29'0 0.0
2017-Oct-09 01:56N 38°58' W 076°29'0 0.0
2017-Oct-09 01:20N 38°58' W 076°29'0 0.0
2017-Oct-09 00:53N 38°58' W 076°29'0 0.0
2017-Oct-09 00:26N 38°58' W 076°29'0 0.0
2017-Oct-08 16:20N 38°58' W 076°29'0 0.0
2017-Oct-08 15:56N 38°58' W 076°29'0 0.0
2017-Oct-08 15:29N 38°58' W 076°29'0 0.0
2017-Oct-08 14:59N 38°58' W 076°29'0 0.0
2017-Oct-08 14:29N 38°58' W 076°29'0 0.0
2017-Oct-08 13:50N 38°58' W 076°29'0 0.0
2017-Oct-08 13:29N 38°58' W 076°29'0 0.0
2017-Oct-08 12:56N 38°58' W 076°29'0 0.0
2017-Oct-08 12:26N 38°58' W 076°29'0 0.0
2017-Oct-08 11:53N 38°58' W 076°29'0 0.0
2017-Oct-08 11:23N 38°58' W 076°29'0 0.0
2017-Oct-08 10:50N 38°58' W 076°29'0 0.0
2017-Oct-08 10:29N 38°58' W 076°29'0 0.0
2017-Oct-08 09:59N 38°58' W 076°29'0 0.0
2017-Oct-08 09:20N 38°58' W 076°29'0 0.0
2017-Oct-08 08:59N 38°58' W 076°29'0 0.0
2017-Oct-08 08:29N 38°58' W 076°29'0 0.0
2017-Oct-08 07:56N 38°58' W 076°29'0 0.0
2017-Oct-08 07:26N 38°58' W 076°29'0 0.0
2017-Oct-08 06:50N 38°58' W 076°29'0 0.0
2017-Oct-08 06:29N 38°58' W 076°29'0 0.0
2017-Oct-08 05:38N 38°58' W 076°29'0 0.0
2017-Oct-08 05:20N 38°58' W 076°29'0 0.0
2017-Oct-08 04:53N 38°58' W 076°29'0 0.0
2017-Oct-08 04:26N 38°58' W 076°29'0 0.0
2017-Oct-08 03:59N 38°58' W 076°29'0 0.0
2017-Oct-08 03:29N 38°58' W 076°29'0 0.0
2017-Oct-07 20:56N 38°58' W 076°29'  
Track history (hours):
 
Tides and Currents Weather Stations Pressure Air Temp Water Temp Dewpoint Dewpoint Depression Visibility Wind Speed Wind Dir Waves Ship Positions

Adventurer

Owner: Hood, Duncan M, Annapolis, MD. More information available from US FCC via Universal Licensing System and Coast Guard Vessel Documentation Center.

Last reported at 2017-Oct-17 20:36 UTC. Time now 2017-Oct-18 11:20 UTC.
Position N 38°58' W 076°29'.

Length 15 m.

Type: Sailing vessel. MMSI: 367520960.

Date/timePositionNaut miles runAvg speedWind from/ knotsBaromVisibWave heightAir tempDewpointWater temp
2017-Oct-17 20:36N 38°58' W 076°29'0 0.0
2017-Oct-17 20:30N 38°58' W 076°29'0 0.0
2017-Oct-17 20:00N 38°58' W 076°29'0 0.0
2017-Oct-17 19:24N 38°58' W 076°29'0 0.0
2017-Oct-17 18:33N 38°58' W 076°29'0 0.0
2017-Oct-17 18:24N 38°58' W 076°29'0 0.0
2017-Oct-16 15:45N 38°58' W 076°29'0 0.0
2017-Oct-16 15:30N 38°58' W 076°29'0 0.0
2017-Oct-16 08:14N 38°58' W 076°29'0 0.0
2017-Oct-16 07:56N 38°58' W 076°29'2 3.5
2017-Oct-16 07:30N 38°57' W 076°27'3 5.0
2017-Oct-16 07:00N 38°55' W 076°27'3 5.1
2017-Oct-16 06:30N 38°52' W 076°26'122 5.1
2017-Oct-15 06:38N 36°50' W 076°18'0 0.0
2017-Oct-15 06:14N 36°50' W 076°18'0 0.0
2017-Oct-15 05:53N 36°50' W 076°18'0 0.0
2017-Oct-15 05:20N 36°50' W 076°18'0 0.0
2017-Oct-15 04:56N 36°50' W 076°18'0 0.0
2017-Oct-15 04:20N 36°50' W 076°18'0 0.0
2017-Oct-15 03:59N 36°50' W 076°18'0 0.0
2017-Oct-15 03:26N 36°50' W 076°18'0 0.0
2017-Oct-15 02:59N 36°50' W 076°18'0 0.0
2017-Oct-15 02:13N 36°50' W 076°18'0 0.0
2017-Oct-14 21:24N 36°50' W 076°18'0 0.0
2017-Oct-14 21:00N 36°50' W 076°18'0 0.0
2017-Oct-14 20:27N 36°50' W 076°18'0 0.0
2017-Oct-14 20:00N 36°50' W 076°18'0 0.0
2017-Oct-14 19:27N 36°50' W 076°18'0 0.0
2017-Oct-14 18:51N 36°50' W 076°18'0 0.0
2017-Oct-14 18:27N 36°50' W 076°18'0 0.0
2017-Oct-14 17:39N 36°50' W 076°18'0 0.0
2017-Oct-14 17:30N 36°50' W 076°18'0 0.0
2017-Oct-14 17:00N 36°50' W 076°18'0 0.0
2017-Oct-14 16:30N 36°50' W 076°18'0 0.0
2017-Oct-14 16:00N 36°50' W 076°18'0 0.0
2017-Oct-14 15:24N 36°50' W 076°18'0 0.0
2017-Oct-14 14:18N 36°50' W 076°18'0 0.0
2017-Oct-14 13:36N 36°50' W 076°18'0 0.0
2017-Oct-14 13:30N 36°50' W 076°18'0 0.0
2017-Oct-14 13:00N 36°50' W 076°18'0 0.0
2017-Oct-14 10:02N 36°50' W 076°18'0 0.0
2017-Oct-14 05:11N 36°50' W 076°18'0 0.0
2017-Oct-14 04:56N 36°50' W 076°18'0 0.0
2017-Oct-14 04:17N 36°50' W 076°18'0 0.0
2017-Oct-14 03:50N 36°50' W 076°18'0 0.0
2017-Oct-14 03:30N 36°50' W 076°18'0 0.0
2017-Oct-14 02:58N 36°50' W 076°18'0 0.0
2017-Oct-14 02:24N 36°50' W 076°18'0 0.0
2017-Oct-14 02:00N 36°50' W 076°18'0 0.0
2017-Oct-13 20:21N 36°50' W 076°18'0 0.0
2017-Oct-13 20:00N 36°50' W 076°18'0 0.0
2017-Oct-13 19:24N 36°50' W 076°18'0 0.0
2017-Oct-13 18:54N 36°50' W 076°18'0 0.0
2017-Oct-13 18:24N 36°50' W 076°18'0 0.0
2017-Oct-13 17:59N 36°50' W 076°18'0 0.0
2017-Oct-13 17:20N 36°50' W 076°18'0 0.0
2017-Oct-13 16:56N 36°50' W 076°18'0 0.0
2017-Oct-13 16:29N 36°50' W 076°18'0 0.0
2017-Oct-13 15:58N 36°50' W 076°18'0 0.0
2017-Oct-13 15:30N 36°50' W 076°18'0 0.0
2017-Oct-13 14:31N 36°50' W 076°18'0 0.0
2017-Oct-13 14:28N 36°50' W 076°18'0 0.1
2017-Oct-13 13:17N 36°50' W 076°18'0 0.0
2017-Oct-13 12:59N 36°50' W 076°18'0 0.0
2017-Oct-13 11:53N 36°50' W 076°18'0 0.2
2017-Oct-13 11:22N 36°51' W 076°18'2 5.8
2017-Oct-13 11:00N 36°52' W 076°20'116 7.2
2017-Oct-12 18:53N 38°48' W 076°26'3 8.7
2017-Oct-12 18:30N 38°51' W 076°25'4 8.3
2017-Oct-12 17:59N 38°55' W 076°25'3 5.5
2017-Oct-12 17:30N 38°58' W 076°25'2 3.1
2017-Oct-12 17:00N 38°59' W 076°23'3 6.6
2017-Oct-12 16:30N 39°02' W 076°23'9 5.0
2017-Oct-12 14:47N 39°10' W 076°27'2 5.5
2017-Oct-12 14:30N 39°11' W 076°28'3 5.9
2017-Oct-12 14:00N 39°13' W 076°31'3 6.0
2017-Oct-12 13:30N 39°15' W 076°34'2 3.0
2017-Oct-12 12:56N 39°17' W 076°35'0 0.0
2017-Oct-11 22:50N 39°17' W 076°35'0 0.0
2017-Oct-11 22:29N 39°17' W 076°35'0 0.0
2017-Oct-11 21:59N 39°17' W 076°35'1 2.6
2017-Oct-11 21:29N 39°17' W 076°36'1 2.6
2017-Oct-11 21:00N 39°16' W 076°35'0 0.4
2017-Oct-11 20:30N 39°16' W 076°35'0 0.4
2017-Oct-11 19:59N 39°17' W 076°35'0 0.0
2017-Oct-11 19:17N 39°17' W 076°35'0 0.0
2017-Oct-11 18:51N 39°17' W 076°35'19 0.8
2017-Oct-10 19:49N 38°58' W 076°29'1 3.9
2017-Oct-10 19:30N 38°59' W 076°28'1 0.6
2017-Oct-10 18:09N 38°60' W 076°29'0 2.1
2017-Oct-10 18:00N 38°59' W 076°29'1 2.8
2017-Oct-10 17:30N 38°58' W 076°29'0 0.1
2017-Oct-10 17:00N 38°58' W 076°29'0 0.4
2017-Oct-10 16:23N 38°58' W 076°29'0 0.0
2017-Oct-10 15:56N 38°58' W 076°29'0 0.0
2017-Oct-10 15:26N 38°58' W 076°29'0 0.0
2017-Oct-10 14:56N 38°58' W 076°29'0 0.0
2017-Oct-10 13:41N 38°58' W 076°29'0 0.0
2017-Oct-10 13:23N 38°58' W 076°29'0 0.0
2017-Oct-10 12:59N 38°58' W 076°29'0 0.0
2017-Oct-10 12:29N 38°58' W 076°29'0 0.0
2017-Oct-10 11:53N 38°58' W 076°29'0 0.0
2017-Oct-10 11:29N 38°58' W 076°29'0 0.0
2017-Oct-10 10:59N 38°58' W 076°29'0 0.0
2017-Oct-10 10:29N 38°58' W 076°29'0 0.0
2017-Oct-10 09:59N 38°58' W 076°29'0 0.0
2017-Oct-10 09:23N 38°58' W 076°29'0 0.0
2017-Oct-10 08:59N 38°58' W 076°29'0 0.0
2017-Oct-10 08:17N 38°58' W 076°29'0 0.0
2017-Oct-10 07:53N 38°58' W 076°29'0 0.0
2017-Oct-10 07:29N 38°58' W 076°29'0 0.0
2017-Oct-10 06:59N 38°58' W 076°29'0 0.0
2017-Oct-10 06:29N 38°58' W 076°29'0 0.0
2017-Oct-10 05:56N 38°58' W 076°29'0 0.0
2017-Oct-10 05:29N 38°58' W 076°29'0 0.0
2017-Oct-10 04:53N 38°58' W 076°29'0 0.0
2017-Oct-10 04:29N 38°58' W 076°29'0 0.0
2017-Oct-10 03:59N 38°58' W 076°29'0 0.0
2017-Oct-10 03:28N 38°58' W 076°29'0 0.0
2017-Oct-10 02:55N 38°58' W 076°29'0 0.0
2017-Oct-10 02:28N 38°58' W 076°29'0 0.0
2017-Oct-10 01:07N 38°58' W 076°29'0 0.0
2017-Oct-10 00:52N 38°58' W 076°29'0 0.0
2017-Oct-10 00:28N 38°58' W 076°29'0 0.0
2017-Oct-09 23:52N 38°58' W 076°29'0 0.0
2017-Oct-09 23:28N 38°58' W 076°29'0 0.0
2017-Oct-09 22:58N 38°58' W 076°29'0 0.0
2017-Oct-09 22:16N 38°58' W 076°29'0 0.0
2017-Oct-09 21:58N 38°58' W 076°29'0 0.0
2017-Oct-09 21:16N 38°58' W 076°29'0 0.0
2017-Oct-09 20:58N 38°58' W 076°29'0 0.0
2017-Oct-09 20:04N 38°58' W 076°29'0 0.0
2017-Oct-09 19:52N 38°58' W 076°29'0 0.0
2017-Oct-09 19:22N 38°58' W 076°29'0 0.0
2017-Oct-09 18:58N 38°58' W 076°29'0 0.0
2017-Oct-09 18:16N 38°58' W 076°29'0 0.0
2017-Oct-09 17:58N 38°58' W 076°29'0 0.0
2017-Oct-09 17:22N 38°58' W 076°29'0 0.0
2017-Oct-09 16:34N 38°58' W 076°29'0 0.0
2017-Oct-09 16:04N 38°58' W 076°29'0 0.0
2017-Oct-09 15:58N 38°58' W 076°29'0 0.0
2017-Oct-09 15:25N 38°58' W 076°29'0 0.0
2017-Oct-09 14:58N 38°58' W 076°29'0 0.0
2017-Oct-09 14:28N 38°58' W 076°29'0 0.0
2017-Oct-09 13:58N 38°58' W 076°29'0 0.0
2017-Oct-09 13:28N 38°58' W 076°29'0 0.0
2017-Oct-09 12:58N 38°58' W 076°29'0 0.0
2017-Oct-09 12:28N 38°58' W 076°29'0 0.0
2017-Oct-09 11:58N 38°58' W 076°29'0 0.0
2017-Oct-09 11:16N 38°58' W 076°29'0 0.0
2017-Oct-09 10:58N 38°58' W 076°29'0 0.0
2017-Oct-09 10:28N 38°58' W 076°29'0 0.0
2017-Oct-09 09:55N 38°58' W 076°29'0 0.0
2017-Oct-09 09:22N 38°58' W 076°29'0 0.0
2017-Oct-09 08:58N 38°58' W 076°29'0 0.0
2017-Oct-09 08:28N 38°58' W 076°29'0 0.0
2017-Oct-09 07:58N 38°58' W 076°29'0 0.0
2017-Oct-09 07:16N 38°58' W 076°29'0 0.0
2017-Oct-09 06:55N 38°58' W 076°29'0 0.0
2017-Oct-09 06:28N 38°58' W 076°29'0 0.0
2017-Oct-09 05:52N 38°58' W 076°29'0 0.0
2017-Oct-09 05:22N 38°58' W 076°29'0 0.0
2017-Oct-09 04:46N 38°58' W 076°29'0 0.0
2017-Oct-09 04:29N 38°58' W 076°29'0 0.0
2017-Oct-09 03:59N 38°58' W 076°29'0 0.0
2017-Oct-09 03:29N 38°58' W 076°29'0 0.0
2017-Oct-09 02:56N 38°58' W 076°29'0 0.0
2017-Oct-09 02:29N 38°58' W 076°29'0 0.0
2017-Oct-09 01:56N 38°58' W 076°29'0 0.0
2017-Oct-09 01:20N 38°58' W 076°29'0 0.0
2017-Oct-09 00:53N 38°58' W 076°29'0 0.0
2017-Oct-09 00:26N 38°58' W 076°29'0 0.0
2017-Oct-08 16:20N 38°58' W 076°29'0 0.0
2017-Oct-08 15:56N 38°58' W 076°29'0 0.0
2017-Oct-08 15:29N 38°58' W 076°29'0 0.0
2017-Oct-08 14:59N 38°58' W 076°29'0 0.0
2017-Oct-08 14:29N 38°58' W 076°29'0 0.0
2017-Oct-08 13:50N 38°58' W 076°29'0 0.0
2017-Oct-08 13:29N 38°58' W 076°29'0 0.0
2017-Oct-08 12:56N 38°58' W 076°29'0 0.0
2017-Oct-08 12:26N 38°58' W 076°29'0 0.0
2017-Oct-08 11:53N 38°58' W 076°29'0 0.0
2017-Oct-08 11:23N 38°58' W 076°29'0 0.0
2017-Oct-08 10:50N 38°58' W 076°29'0 0.0
2017-Oct-08 10:29N 38°58' W 076°29'0 0.0
2017-Oct-08 09:59N 38°58' W 076°29'0 0.0
2017-Oct-08 09:20N 38°58' W 076°29'0 0.0
2017-Oct-08 08:59N 38°58' W 076°29'0 0.0
2017-Oct-08 08:29N 38°58' W 076°29'0 0.0
2017-Oct-08 07:56N 38°58' W 076°29'0 0.0
2017-Oct-08 07:26N 38°58' W 076°29'0 0.0
2017-Oct-08 06:50N 38°58' W 076°29'0 0.0
2017-Oct-08 06:29N 38°58' W 076°29'0 0.0
2017-Oct-08 05:38N 38°58' W 076°29'0 0.0
2017-Oct-08 05:20N 38°58' W 076°29'0 0.0
2017-Oct-08 04:53N 38°58' W 076°29'0 0.0
2017-Oct-08 04:26N 38°58' W 076°29'0 0.0
2017-Oct-08 03:59N 38°58' W 076°29'0 0.0
2017-Oct-08 03:29N 38°58' W 076°29'0 0.0
2017-Oct-07 20:56N 38°58' W 076°29'  

Dump ship's entire track history